sensor_id;sensor_type;location;lat;lon;timestamp;pressure;altitude;pressure_sealevel;temperature;humidity
50310;BME280;36207;51.850;21.698;2023-04-19T00:01:04;100134.48;;;10.83;66.83
50310;BME280;36207;51.850;21.698;2023-04-19T00:03:30;100130.81;;;10.85;66.94
50310;BME280;36207;51.850;21.698;2023-04-19T00:05:56;100123.55;;;10.86;67.07
50310;BME280;36207;51.850;21.698;2023-04-19T00:08:25;100120.36;;;10.86;67.05
50310;BME280;36207;51.850;21.698;2023-04-19T00:10:51;100114.88;;;10.83;67.12
50310;BME280;36207;51.850;21.698;2023-04-19T00:13:17;100107.69;;;10.79;67.23
50310;BME280;36207;51.850;21.698;2023-04-19T00:15:43;100102.27;;;10.72;67.34
50310;BME280;36207;51.850;21.698;2023-04-19T00:18:09;100097.52;;;10.66;67.33
50310;BME280;36207;51.850;21.698;2023-04-19T00:20:34;100100.56;;;10.62;67.34
50310;BME280;36207;51.850;21.698;2023-04-19T00:23:00;100099.38;;;10.58;67.55
50310;BME280;36207;51.850;21.698;2023-04-19T00:25:26;100094.69;;;10.56;67.77
50310;BME280;36207;51.850;21.698;2023-04-19T00:27:54;100094.60;;;10.55;67.73
50310;BME280;36207;51.850;21.698;2023-04-19T00:30:20;100091.08;;;10.53;67.70
50310;BME280;36207;51.850;21.698;2023-04-19T00:32:46;100084.73;;;10.52;67.96
50310;BME280;36207;51.850;21.698;2023-04-19T00:35:12;100083.05;;;10.50;67.95
50310;BME280;36207;51.850;21.698;2023-04-19T00:37:40;100084.81;;;10.47;67.98
50310;BME280;36207;51.850;21.698;2023-04-19T00:40:06;100082.64;;;10.41;67.99
50310;BME280;36207;51.850;21.698;2023-04-19T00:42:33;100080.80;;;10.36;68.02
50310;BME280;36207;51.850;21.698;2023-04-19T00:44:59;100082.09;;;10.34;68.26
50310;BME280;36207;51.850;21.698;2023-04-19T00:47:24;100080.85;;;10.34;68.38
50310;BME280;36207;51.850;21.698;2023-04-19T00:49:51;100078.29;;;10.33;68.56
50310;BME280;36207;51.850;21.698;2023-04-19T00:52:17;100084.23;;;10.30;68.53
50310;BME280;36207;51.850;21.698;2023-04-19T00:54:44;100080.84;;;10.27;68.58
50310;BME280;36207;51.850;21.698;2023-04-19T00:57:11;100076.16;;;10.24;68.53
50310;BME280;36207;51.850;21.698;2023-04-19T00:59:37;100071.95;;;10.21;68.62
50310;BME280;36207;51.850;21.698;2023-04-19T01:02:03;100069.22;;;10.20;68.69
50310;BME280;36207;51.850;21.698;2023-04-19T01:04:29;100066.28;;;10.19;68.75
50310;BME280;36207;51.850;21.698;2023-04-19T01:06:55;100065.39;;;10.17;68.84
50310;BME280;36207;51.850;21.698;2023-04-19T01:09:22;100058.29;;;10.14;68.79
50310;BME280;36207;51.850;21.698;2023-04-19T01:11:49;100058.08;;;10.13;68.81
50310;BME280;36207;51.850;21.698;2023-04-19T01:14:15;100056.47;;;10.10;68.90
50310;BME280;36207;51.850;21.698;2023-04-19T01:16:41;100054.98;;;10.07;68.98
50310;BME280;36207;51.850;21.698;2023-04-19T01:19:07;100051.70;;;10.05;68.98
50310;BME280;36207;51.850;21.698;2023-04-19T01:21:36;100046.94;;;10.01;69.01
50310;BME280;36207;51.850;21.698;2023-04-19T01:24:03;100039.98;;;9.99;69.06
50310;BME280;36207;51.850;21.698;2023-04-19T01:26:30;100038.37;;;9.99;69.06
50310;BME280;36207;51.850;21.698;2023-04-19T01:28:56;100032.77;;;9.96;69.07
50310;BME280;36207;51.850;21.698;2023-04-19T01:31:25;100029.89;;;9.95;69.11
50310;BME280;36207;51.850;21.698;2023-04-19T01:33:51;100030.67;;;9.93;69.13
50310;BME280;36207;51.850;21.698;2023-04-19T01:36:16;100027.73;;;9.91;69.09
50310;BME280;36207;51.850;21.698;2023-04-19T01:38:42;100026.56;;;9.87;69.08
50310;BME280;36207;51.850;21.698;2023-04-19T01:41:08;100023.72;;;9.83;69.06
50310;BME280;36207;51.850;21.698;2023-04-19T01:43:34;100022.77;;;9.81;69.06
50310;BME280;36207;51.850;21.698;2023-04-19T01:46:00;100023.28;;;9.78;69.07
50310;BME280;36207;51.850;21.698;2023-04-19T01:48:26;100024.64;;;9.77;69.05
50310;BME280;36207;51.850;21.698;2023-04-19T01:50:52;100018.72;;;9.76;69.15
50310;BME280;36207;51.850;21.698;2023-04-19T01:53:18;100016.91;;;9.72;69.07
50310;BME280;36207;51.850;21.698;2023-04-19T01:55:44;100013.45;;;9.68;69.14
50310;BME280;36207;51.850;21.698;2023-04-19T01:58:10;100010.64;;;9.64;69.06
50310;BME280;36207;51.850;21.698;2023-04-19T02:00:36;100012.46;;;9.57;69.17
50310;BME280;36207;51.850;21.698;2023-04-19T02:03:02;100012.35;;;9.54;68.98
50310;BME280;36207;51.850;21.698;2023-04-19T02:05:27;100010.36;;;9.49;69.13
50310;BME280;36207;51.850;21.698;2023-04-19T02:07:53;100013.20;;;9.46;69.25
50310;BME280;36207;51.850;21.698;2023-04-19T02:10:19;100021.27;;;9.46;69.16
50310;BME280;36207;51.850;21.698;2023-04-19T02:12:45;100023.52;;;9.43;69.15
50310;BME280;36207;51.850;21.698;2023-04-19T02:15:11;100018.93;;;9.38;69.24
50310;BME280;36207;51.850;21.698;2023-04-19T02:17:37;100020.14;;;9.36;69.42
50310;BME280;36207;51.850;21.698;2023-04-19T02:20:04;100022.70;;;9.34;69.32
50310;BME280;36207;51.850;21.698;2023-04-19T02:22:30;100020.16;;;9.30;69.29
50310;BME280;36207;51.850;21.698;2023-04-19T02:24:56;100024.16;;;9.28;69.43
50310;BME280;36207;51.850;21.698;2023-04-19T02:27:22;100023.92;;;9.27;69.50
50310;BME280;36207;51.850;21.698;2023-04-19T02:29:47;100020.36;;;9.27;69.49
50310;BME280;36207;51.850;21.698;2023-04-19T02:32:13;100016.16;;;9.26;69.52
50310;BME280;36207;51.850;21.698;2023-04-19T02:34:39;100015.96;;;9.26;69.57
50310;BME280;36207;51.850;21.698;2023-04-19T02:37:05;100011.38;;;9.26;69.65
50310;BME280;36207;51.850;21.698;2023-04-19T02:39:31;100006.80;;;9.26;69.69
50310;BME280;36207;51.850;21.698;2023-04-19T02:41:58;100001.02;;;9.25;69.59
50310;BME280;36207;51.850;21.698;2023-04-19T02:44:25;99996.02;;;9.23;69.73
50310;BME280;36207;51.850;21.698;2023-04-19T02:46:52;99988.64;;;9.23;69.63
50310;BME280;36207;51.850;21.698;2023-04-19T02:49:19;99985.23;;;9.25;69.71
50310;BME280;36207;51.850;21.698;2023-04-19T02:51:45;99971.77;;;9.27;69.92
50310;BME280;36207;51.850;21.698;2023-04-19T02:54:12;99971.16;;;9.28;69.87
50310;BME280;36207;51.850;21.698;2023-04-19T02:56:38;99966.43;;;9.27;69.69
50310;BME280;36207;51.850;21.698;2023-04-19T02:59:04;99965.98;;;9.25;69.82
50310;BME280;36207;51.850;21.698;2023-04-19T03:01:31;99957.20;;;9.21;69.83
50310;BME280;36207;51.850;21.698;2023-04-19T03:03:57;99956.66;;;9.19;69.92
50310;BME280;36207;51.850;21.698;2023-04-19T03:06:23;99954.30;;;9.18;69.87
50310;BME280;36207;51.850;21.698;2023-04-19T03:08:49;99948.52;;;9.18;69.92
50310;BME280;36207;51.850;21.698;2023-04-19T03:11:16;99949.11;;;9.19;70.05
50310;BME280;36207;51.850;21.698;2023-04-19T03:13:42;99947.08;;;9.21;70.00
50310;BME280;36207;51.850;21.698;2023-04-19T03:16:08;99946.84;;;9.22;70.04
50310;BME280;36207;51.850;21.698;2023-04-19T03:18:35;99951.10;;;9.22;70.11
50310;BME280;36207;51.850;21.698;2023-04-19T03:21:01;99952.77;;;9.19;70.08
50310;BME280;36207;51.850;21.698;2023-04-19T03:23:27;99949.41;;;9.17;70.11
50310;BME280;36207;51.850;21.698;2023-04-19T03:25:53;99950.48;;;9.17;70.19
50310;BME280;36207;51.850;21.698;2023-04-19T03:28:19;99947.90;;;9.18;70.18
50310;BME280;36207;51.850;21.698;2023-04-19T03:30:45;99944.71;;;9.20;70.34
50310;BME280;36207;51.850;21.698;2023-04-19T03:33:11;99942.02;;;9.20;70.31
50310;BME280;36207;51.850;21.698;2023-04-19T03:35:37;99939.88;;;9.20;70.55
50310;BME280;36207;51.850;21.698;2023-04-19T03:38:03;99940.21;;;9.20;70.33
50310;BME280;36207;51.850;21.698;2023-04-19T03:40:31;99937.52;;;9.19;70.29
50310;BME280;36207;51.850;21.698;2023-04-19T03:42:57;99937.77;;;9.15;70.26
50310;BME280;36207;51.850;21.698;2023-04-19T03:45:23;99938.00;;;9.13;70.38
50310;BME280;36207;51.850;21.698;2023-04-19T03:47:50;99938.93;;;9.11;70.50
50310;BME280;36207;51.850;21.698;2023-04-19T03:50:15;99940.46;;;9.10;70.38
50310;BME280;36207;51.850;21.698;2023-04-19T03:52:41;99942.52;;;9.11;70.62
50310;BME280;36207;51.850;21.698;2023-04-19T03:55:08;99946.86;;;9.10;70.61
50310;BME280;36207;51.850;21.698;2023-04-19T03:57:34;99943.88;;;9.10;70.66
50310;BME280;36207;51.850;21.698;2023-04-19T04:00:00;99946.81;;;9.08;70.69
50310;BME280;36207;51.850;21.698;2023-04-19T04:02:26;99952.20;;;9.04;70.70
50310;BME280;36207;51.850;21.698;2023-04-19T04:04:55;99953.45;;;9.04;70.92
50310;BME280;36207;51.850;21.698;2023-04-19T04:07:21;99953.65;;;9.05;71.01
50310;BME280;36207;51.850;21.698;2023-04-19T04:09:48;99951.52;;;9.07;71.04
50310;BME280;36207;51.850;21.698;2023-04-19T04:12:14;99951.77;;;9.09;71.08
50310;BME280;36207;51.850;21.698;2023-04-19T04:14:40;99949.13;;;9.11;71.11
50310;BME280;36207;51.850;21.698;2023-04-19T04:17:06;99945.17;;;9.09;71.11
50310;BME280;36207;51.850;21.698;2023-04-19T04:19:32;99945.05;;;9.07;71.09
50310;BME280;36207;51.850;21.698;2023-04-19T04:21:57;99947.45;;;9.07;71.12
50310;BME280;36207;51.850;21.698;2023-04-19T04:24:23;99943.19;;;9.08;71.08
50310;BME280;36207;51.850;21.698;2023-04-19T04:26:50;99944.11;;;9.09;71.17
50310;BME280;36207;51.850;21.698;2023-04-19T04:29:16;99941.04;;;9.10;71.28
50310;BME280;36207;51.850;21.698;2023-04-19T04:31:42;99945.88;;;9.10;71.12
50310;BME280;36207;51.850;21.698;2023-04-19T04:34:08;99946.52;;;9.09;71.08
50310;BME280;36207;51.850;21.698;2023-04-19T04:36:35;99944.19;;;9.09;71.15
50310;BME280;36207;51.850;21.698;2023-04-19T04:39:04;99942.80;;;9.10;71.21
50310;BME280;36207;51.850;21.698;2023-04-19T04:41:32;99944.94;;;9.13;71.21
50310;BME280;36207;51.850;21.698;2023-04-19T04:44:00;99947.98;;;9.14;71.33
50310;BME280;36207;51.850;21.698;2023-04-19T04:46:30;99943.14;;;9.16;71.52
50310;BME280;36207;51.850;21.698;2023-04-19T04:48:56;99947.38;;;9.18;71.44
50310;BME280;36207;51.850;21.698;2023-04-19T04:51:22;99944.21;;;9.19;71.24
50310;BME280;36207;51.850;21.698;2023-04-19T04:53:48;99942.20;;;9.23;71.48
50310;BME280;36207;51.850;21.698;2023-04-19T04:56:14;99936.89;;;9.26;71.37
50310;BME280;36207;51.850;21.698;2023-04-19T04:58:40;99935.55;;;9.27;71.38
50310;BME280;36207;51.850;21.698;2023-04-19T05:01:06;99934.08;;;9.29;71.41
50310;BME280;36207;51.850;21.698;2023-04-19T05:03:32;99935.90;;;9.30;71.33
50310;BME280;36207;51.850;21.698;2023-04-19T05:05:57;99938.48;;;9.32;71.43
50310;BME280;36207;51.850;21.698;2023-04-19T05:08:26;99933.27;;;9.31;71.40
50310;BME280;36207;51.850;21.698;2023-04-19T05:10:52;99935.20;;;9.32;71.35
50310;BME280;36207;51.850;21.698;2023-04-19T05:13:21;99940.66;;;9.32;71.41
50310;BME280;36207;51.850;21.698;2023-04-19T05:15:47;99941.02;;;9.34;71.50
50310;BME280;36207;51.850;21.698;2023-04-19T05:18:13;99936.65;;;9.38;71.62
50310;BME280;36207;51.850;21.698;2023-04-19T05:20:39;99937.14;;;9.40;71.55
50310;BME280;36207;51.850;21.698;2023-04-19T05:23:05;99936.86;;;9.39;71.72
50310;BME280;36207;51.850;21.698;2023-04-19T05:25:31;99935.91;;;9.38;71.49
50310;BME280;36207;51.850;21.698;2023-04-19T05:27:57;99933.77;;;9.38;71.59
50310;BME280;36207;51.850;21.698;2023-04-19T05:30:22;99936.56;;;9.42;71.64
50310;BME280;36207;51.850;21.698;2023-04-19T05:32:48;99935.78;;;9.44;71.69
50310;BME280;36207;51.850;21.698;2023-04-19T05:35:14;99936.52;;;9.44;71.61
50310;BME280;36207;51.850;21.698;2023-04-19T05:37:40;99934.90;;;9.46;71.69
50310;BME280;36207;51.850;21.698;2023-04-19T05:40:06;99935.92;;;9.45;71.58
50310;BME280;36207;51.850;21.698;2023-04-19T05:42:37;99936.82;;;9.43;71.57
50310;BME280;36207;51.850;21.698;2023-04-19T05:45:03;99937.09;;;9.42;71.70
50310;BME280;36207;51.850;21.698;2023-04-19T05:47:30;99934.71;;;9.44;71.69
50310;BME280;36207;51.850;21.698;2023-04-19T05:49:56;99935.51;;;9.48;71.75
50310;BME280;36207;51.850;21.698;2023-04-19T05:52:22;99934.94;;;9.51;71.80
50310;BME280;36207;51.850;21.698;2023-04-19T05:54:47;99935.00;;;9.54;71.72
50310;BME280;36207;51.850;21.698;2023-04-19T05:57:13;99940.54;;;9.54;71.78
50310;BME280;36207;51.850;21.698;2023-04-19T05:59:39;99943.16;;;9.54;71.80
50310;BME280;36207;51.850;21.698;2023-04-19T06:02:06;99938.77;;;9.55;71.81
50310;BME280;36207;51.850;21.698;2023-04-19T06:04:32;99940.63;;;9.56;71.84
50310;BME280;36207;51.850;21.698;2023-04-19T06:06:58;99942.08;;;9.59;71.88
50310;BME280;36207;51.850;21.698;2023-04-19T06:09:23;99940.84;;;9.60;71.89
50310;BME280;36207;51.850;21.698;2023-04-19T06:11:49;99941.33;;;9.61;71.77
50310;BME280;36207;51.850;21.698;2023-04-19T06:14:15;99946.23;;;9.60;71.80
50310;BME280;36207;51.850;21.698;2023-04-19T06:16:41;99942.09;;;9.60;71.82
50310;BME280;36207;51.850;21.698;2023-04-19T06:19:07;99944.78;;;9.59;71.80
50310;BME280;36207;51.850;21.698;2023-04-19T06:21:33;99945.44;;;9.59;71.79
50310;BME280;36207;51.850;21.698;2023-04-19T06:23:59;99945.34;;;9.60;71.82
50310;BME280;36207;51.850;21.698;2023-04-19T06:26:25;99947.13;;;9.60;71.79
50310;BME280;36207;51.850;21.698;2023-04-19T06:28:51;99945.23;;;9.61;71.88
50310;BME280;36207;51.850;21.698;2023-04-19T06:31:17;99944.34;;;9.64;72.03
50310;BME280;36207;51.850;21.698;2023-04-19T06:33:43;99947.25;;;9.70;72.13
50310;BME280;36207;51.850;21.698;2023-04-19T06:36:09;99941.70;;;9.73;72.10
50310;BME280;36207;51.850;21.698;2023-04-19T06:38:35;99944.86;;;9.80;72.23
50310;BME280;36207;51.850;21.698;2023-04-19T06:41:03;99945.25;;;9.86;72.17
50310;BME280;36207;51.850;21.698;2023-04-19T06:43:29;99939.23;;;9.90;72.16
50310;BME280;36207;51.850;21.698;2023-04-19T06:45:59;99938.90;;;9.96;72.22
50310;BME280;36207;51.850;21.698;2023-04-19T06:48:25;99940.52;;;10.00;72.16
50310;BME280;36207;51.850;21.698;2023-04-19T06:50:53;99943.03;;;10.05;72.23
50310;BME280;36207;51.850;21.698;2023-04-19T06:53:19;99942.44;;;10.09;72.31
50310;BME280;36207;51.850;21.698;2023-04-19T06:55:45;99940.08;;;10.11;72.08
50310;BME280;36207;51.850;21.698;2023-04-19T06:58:11;99936.21;;;10.12;72.18
50310;BME280;36207;51.850;21.698;2023-04-19T07:00:37;99936.55;;;10.12;72.08
50310;BME280;36207;51.850;21.698;2023-04-19T07:03:03;99937.40;;;10.12;72.05
50310;BME280;36207;51.850;21.698;2023-04-19T07:05:30;99937.91;;;10.14;72.11
50310;BME280;36207;51.850;21.698;2023-04-19T07:07:56;99938.58;;;10.14;72.05
50310;BME280;36207;51.850;21.698;2023-04-19T07:10:23;99935.04;;;10.14;72.18
50310;BME280;36207;51.850;21.698;2023-04-19T07:12:50;99937.51;;;10.14;72.20
50310;BME280;36207;51.850;21.698;2023-04-19T07:15:16;99936.31;;;10.12;72.12
50310;BME280;36207;51.850;21.698;2023-04-19T07:17:42;99936.19;;;10.12;72.01
50310;BME280;36207;51.850;21.698;2023-04-19T07:20:08;99934.91;;;10.11;72.00
50310;BME280;36207;51.850;21.698;2023-04-19T07:22:34;99934.83;;;10.10;72.04
50310;BME280;36207;51.850;21.698;2023-04-19T07:25:00;99931.90;;;10.14;72.14
50310;BME280;36207;51.850;21.698;2023-04-19T07:27:26;99930.83;;;10.18;72.22
50310;BME280;36207;51.850;21.698;2023-04-19T07:29:52;99933.65;;;10.20;72.16
50310;BME280;36207;51.850;21.698;2023-04-19T07:32:18;99937.39;;;10.20;72.10
50310;BME280;36207;51.850;21.698;2023-04-19T07:34:44;99936.39;;;10.19;72.10
50310;BME280;36207;51.850;21.698;2023-04-19T07:37:10;99938.92;;;10.19;72.06
50310;BME280;36207;51.850;21.698;2023-04-19T07:39:37;99933.29;;;10.18;71.98
50310;BME280;36207;51.850;21.698;2023-04-19T07:42:04;99935.70;;;10.19;72.15
50310;BME280;36207;51.850;21.698;2023-04-19T07:44:30;99935.61;;;10.23;72.15
50310;BME280;36207;51.850;21.698;2023-04-19T07:46:56;99941.25;;;10.25;72.18
50310;BME280;36207;51.850;21.698;2023-04-19T07:49:21;99939.73;;;10.26;72.18
50310;BME280;36207;51.850;21.698;2023-04-19T07:51:47;99938.48;;;10.27;72.25
50310;BME280;36207;51.850;21.698;2023-04-19T07:54:13;99942.09;;;10.27;72.18
50310;BME280;36207;51.850;21.698;2023-04-19T07:56:41;99942.05;;;10.26;72.14
50310;BME280;36207;51.850;21.698;2023-04-19T07:59:06;99940.98;;;10.25;72.25
50310;BME280;36207;51.850;21.698;2023-04-19T08:01:32;99945.45;;;10.29;72.34
50310;BME280;36207;51.850;21.698;2023-04-19T08:03:58;99943.13;;;10.32;72.44
50310;BME280;36207;51.850;21.698;2023-04-19T08:06:24;99945.27;;;10.35;72.33
50310;BME280;36207;51.850;21.698;2023-04-19T08:08:51;99943.52;;;10.38;72.32
50310;BME280;36207;51.850;21.698;2023-04-19T08:11:17;99944.10;;;10.41;72.47
50310;BME280;36207;51.850;21.698;2023-04-19T08:13:43;99944.49;;;10.45;72.37
50310;BME280;36207;51.850;21.698;2023-04-19T08:16:09;99943.05;;;10.45;72.42
50310;BME280;36207;51.850;21.698;2023-04-19T08:18:34;99943.61;;;10.47;72.35
50310;BME280;36207;51.850;21.698;2023-04-19T08:21:00;99948.73;;;10.53;72.43
50310;BME280;36207;51.850;21.698;2023-04-19T08:23:26;99950.45;;;10.58;72.51
50310;BME280;36207;51.850;21.698;2023-04-19T08:25:53;99954.08;;;10.63;72.53
50310;BME280;36207;51.850;21.698;2023-04-19T08:28:19;99958.20;;;10.66;72.47
50310;BME280;36207;51.850;21.698;2023-04-19T08:30:45;99957.21;;;10.69;72.42
50310;BME280;36207;51.850;21.698;2023-04-19T08:33:11;99956.45;;;10.73;72.54
50310;BME280;36207;51.850;21.698;2023-04-19T08:35:37;99959.43;;;10.77;72.52
50310;BME280;36207;51.850;21.698;2023-04-19T08:38:06;99963.98;;;10.85;72.67
50310;BME280;36207;51.850;21.698;2023-04-19T08:40:32;99959.23;;;10.92;72.50
50310;BME280;36207;51.850;21.698;2023-04-19T08:42:58;99965.94;;;11.00;72.51
50310;BME280;36207;51.850;21.698;2023-04-19T08:45:26;99968.73;;;11.06;72.55
50310;BME280;36207;51.850;21.698;2023-04-19T08:47:53;99969.84;;;11.10;72.43
50310;BME280;36207;51.850;21.698;2023-04-19T08:50:20;99970.17;;;11.13;72.49
50310;BME280;36207;51.850;21.698;2023-04-19T08:52:49;99970.48;;;11.15;72.39
50310;BME280;36207;51.850;21.698;2023-04-19T08:55:15;99972.73;;;11.17;72.51
50310;BME280;36207;51.850;21.698;2023-04-19T08:57:41;99973.27;;;11.20;72.49
50310;BME280;36207;51.850;21.698;2023-04-19T09:00:07;99972.45;;;11.23;72.47
50310;BME280;36207;51.850;21.698;2023-04-19T09:02:49;99974.72;;;11.25;72.30
50310;BME280;36207;51.850;21.698;2023-04-19T09:05:16;99974.85;;;11.25;72.42
50310;BME280;36207;51.850;21.698;2023-04-19T09:07:44;99975.67;;;11.27;72.51
50310;BME280;36207;51.850;21.698;2023-04-19T09:10:14;99979.58;;;11.30;72.49
50310;BME280;36207;51.850;21.698;2023-04-19T09:12:40;99975.54;;;11.33;72.53
50310;BME280;36207;51.850;21.698;2023-04-19T09:15:07;99974.73;;;11.38;72.49
50310;BME280;36207;51.850;21.698;2023-04-19T09:17:38;99975.35;;;11.43;72.55
50310;BME280;36207;51.850;21.698;2023-04-19T09:20:05;99979.54;;;11.47;72.53
50310;BME280;36207;51.850;21.698;2023-04-19T09:22:32;99979.54;;;11.47;72.47
50310;BME280;36207;51.850;21.698;2023-04-19T09:24:58;99978.31;;;11.47;72.46
50310;BME280;36207;51.850;21.698;2023-04-19T09:27:33;99980.45;;;11.48;72.62
50310;BME280;36207;51.850;21.698;2023-04-19T09:30:01;99984.69;;;11.53;72.62
50310;BME280;36207;51.850;21.698;2023-04-19T09:32:28;99980.90;;;11.56;72.67
50310;BME280;36207;51.850;21.698;2023-04-19T09:34:56;99984.17;;;11.61;72.63
50310;BME280;36207;51.850;21.698;2023-04-19T09:37:23;99983.48;;;11.66;72.53
50310;BME280;36207;51.850;21.698;2023-04-19T09:39:51;99983.92;;;11.67;72.41
50310;BME280;36207;51.850;21.698;2023-04-19T09:42:17;99984.33;;;11.66;72.49
50310;BME280;36207;51.850;21.698;2023-04-19T09:44:55;99984.67;;;11.65;72.57
50310;BME280;36207;51.850;21.698;2023-04-19T09:47:23;99981.89;;;11.66;72.63
50310;BME280;36207;51.850;21.698;2023-04-19T09:52:32;99979.79;;;11.80;72.54
50310;BME280;36207;51.850;21.698;2023-04-19T09:55:00;99977.80;;;11.84;72.43
50310;BME280;36207;51.850;21.698;2023-04-19T09:57:27;99976.33;;;11.88;72.22
50310;BME280;36207;51.850;21.698;2023-04-19T09:59:52;99978.65;;;11.86;72.28
50310;BME280;36207;51.850;21.698;2023-04-19T10:02:19;99977.44;;;11.88;72.45
50310;BME280;36207;51.850;21.698;2023-04-19T10:04:45;99975.77;;;11.92;72.62
50310;BME280;36207;51.850;21.698;2023-04-19T10:07:11;99968.52;;;11.99;72.70
50310;BME280;36207;51.850;21.698;2023-04-19T10:09:37;99966.40;;;12.06;72.54
50310;BME280;36207;51.850;21.698;2023-04-19T10:12:05;99962.77;;;12.10;72.45
50310;BME280;36207;51.850;21.698;2023-04-19T10:14:33;99958.13;;;12.15;72.51
50310;BME280;36207;51.850;21.698;2023-04-19T10:17:01;99956.88;;;12.21;72.69
50310;BME280;36207;51.850;21.698;2023-04-19T10:19:27;99958.49;;;12.27;72.64
50310;BME280;36207;51.850;21.698;2023-04-19T10:21:54;99957.80;;;12.31;72.44
50310;BME280;36207;51.850;21.698;2023-04-19T10:24:22;99955.36;;;12.35;72.47
50310;BME280;36207;51.850;21.698;2023-04-19T10:27:08;99952.05;;;12.38;72.51
50310;BME280;36207;51.850;21.698;2023-04-19T10:30:03;99955.65;;;12.44;72.45
50310;BME280;36207;51.850;21.698;2023-04-19T10:32:40;99953.84;;;12.48;72.33
50310;BME280;36207;51.850;21.698;2023-04-19T10:35:17;99957.23;;;12.52;72.25
50310;BME280;36207;51.850;21.698;2023-04-19T10:43:19;99956.55;;;12.51;71.93
50310;BME280;36207;51.850;21.698;2023-04-19T10:45:46;99958.36;;;12.52;72.13
50310;BME280;36207;51.850;21.698;2023-04-19T10:50:59;99967.11;;;12.55;72.00
50310;BME280;36207;51.850;21.698;2023-04-19T10:53:59;99966.92;;;12.57;71.98
50310;BME280;36207;51.850;21.698;2023-04-19T11:01:42;99974.41;;;12.74;72.06
50310;BME280;36207;51.850;21.698;2023-04-19T11:04:09;99974.55;;;12.78;72.04
50310;BME280;36207;51.850;21.698;2023-04-19T11:06:37;99976.55;;;12.79;71.84
50310;BME280;36207;51.850;21.698;2023-04-19T11:09:03;99979.24;;;12.82;71.79
50310;BME280;36207;51.850;21.698;2023-04-19T11:11:35;99982.30;;;12.82;71.46
50310;BME280;36207;51.850;21.698;2023-04-19T11:14:02;99977.55;;;12.77;71.37
50310;BME280;36207;51.850;21.698;2023-04-19T11:16:29;99978.80;;;12.75;71.65
50310;BME280;36207;51.850;21.698;2023-04-19T11:18:55;99980.02;;;12.76;71.53
50310;BME280;36207;51.850;21.698;2023-04-19T11:21:21;99977.98;;;12.73;71.26
50310;BME280;36207;51.850;21.698;2023-04-19T11:23:48;99980.92;;;12.74;71.36
50310;BME280;36207;51.850;21.698;2023-04-19T11:26:30;99983.30;;;12.77;71.46
50310;BME280;36207;51.850;21.698;2023-04-19T11:28:55;99980.67;;;12.81;71.49
50310;BME280;36207;51.850;21.698;2023-04-19T11:31:24;99979.14;;;12.84;71.54
50310;BME280;36207;51.850;21.698;2023-04-19T11:33:50;99983.61;;;12.88;71.54
50310;BME280;36207;51.850;21.698;2023-04-19T11:36:16;99982.52;;;12.90;71.53
50310;BME280;36207;51.850;21.698;2023-04-19T11:38:46;99978.83;;;12.92;71.49
50310;BME280;36207;51.850;21.698;2023-04-19T11:41:12;99981.60;;;12.94;71.51
50310;BME280;36207;51.850;21.698;2023-04-19T11:43:38;99977.58;;;12.96;71.55
50310;BME280;36207;51.850;21.698;2023-04-19T11:46:07;99979.38;;;13.01;71.44
50310;BME280;36207;51.850;21.698;2023-04-19T11:48:34;99977.41;;;13.03;71.18
50310;BME280;36207;51.850;21.698;2023-04-19T11:51:00;99976.27;;;13.07;71.39
50310;BME280;36207;51.850;21.698;2023-04-19T11:53:27;99973.56;;;13.12;71.38
50310;BME280;36207;51.850;21.698;2023-04-19T11:56:02;99970.77;;;13.17;71.57
50310;BME280;36207;51.850;21.698;2023-04-19T11:58:42;99971.80;;;13.23;71.39
50310;BME280;36207;51.850;21.698;2023-04-19T12:01:17;99970.51;;;13.28;71.41
50310;BME280;36207;51.850;21.698;2023-04-19T12:03:49;99961.33;;;13.34;71.45
50310;BME280;36207;51.850;21.698;2023-04-19T12:06:18;99959.28;;;13.43;71.62
50310;BME280;36207;51.850;21.698;2023-04-19T12:08:48;99958.50;;;13.56;71.50
50310;BME280;36207;51.850;21.698;2023-04-19T12:11:15;99956.21;;;13.71;71.75
50310;BME280;36207;51.850;21.698;2023-04-19T12:13:43;99956.47;;;13.88;71.87
50310;BME280;36207;51.850;21.698;2023-04-19T12:16:10;99958.63;;;14.03;71.62
50310;BME280;36207;51.850;21.698;2023-04-19T12:18:52;99954.85;;;14.16;71.39
50310;BME280;36207;51.850;21.698;2023-04-19T12:21:29;99955.88;;;14.26;71.37
50310;BME280;36207;51.850;21.698;2023-04-19T12:24:00;99955.30;;;14.33;71.20
50310;BME280;36207;51.850;21.698;2023-04-19T12:26:28;99953.89;;;14.41;71.45
50310;BME280;36207;51.850;21.698;2023-04-19T12:28:55;99949.73;;;14.48;71.32
50310;BME280;36207;51.850;21.698;2023-04-19T12:31:21;99949.36;;;14.49;70.79
50310;BME280;36207;51.850;21.698;2023-04-19T12:33:48;99953.73;;;14.50;70.90
50310;BME280;36207;51.850;21.698;2023-04-19T12:36:14;99954.63;;;14.56;71.00
50310;BME280;36207;51.850;21.698;2023-04-19T12:38:40;99955.29;;;14.65;71.28
50310;BME280;36207;51.850;21.698;2023-04-19T12:41:07;99954.38;;;14.76;71.21
50310;BME280;36207;51.850;21.698;2023-04-19T12:43:33;99951.64;;;14.91;71.32
50310;BME280;36207;51.850;21.698;2023-04-19T12:45:59;99953.02;;;15.09;71.05
50310;BME280;36207;51.850;21.698;2023-04-19T12:48:25;99953.03;;;15.16;70.51
50310;BME280;36207;51.850;21.698;2023-04-19T12:50:52;99952.98;;;15.15;70.01
50310;BME280;36207;51.850;21.698;2023-04-19T12:53:18;99954.13;;;15.13;70.23
50310;BME280;36207;51.850;21.698;2023-04-19T12:55:44;99953.00;;;15.14;70.19
50310;BME280;36207;51.850;21.698;2023-04-19T12:58:13;99951.55;;;15.17;70.44
50310;BME280;36207;51.850;21.698;2023-04-19T13:00:39;99951.70;;;15.22;70.45
50310;BME280;36207;51.850;21.698;2023-04-19T13:03:05;99951.48;;;15.26;70.20
50310;BME280;36207;51.850;21.698;2023-04-19T13:05:30;99948.98;;;15.29;69.82
50310;BME280;36207;51.850;21.698;2023-04-19T13:07:56;99944.23;;;15.32;69.98